Time;durP1;ratioP1;P1;durP2;ratioP2;P2;SDS_P1;SDS_P2;PMS_P1;PMS_P2;Temp;Humidity;BMP_temperature;BMP_pressure;BME280_temperature;BME280_humidity;BME280_pressure;Samples;Min_cycle;Max_cycle;Signal;HPM_P1;HPM_P2
2022/03/28 00:02:01;;;;;;;15.73;11.93;;;;;;;10.91;76.73;101329.63;6389326;22;20022;-90
2022/03/28 00:04:33;;;;;;;17.52;11.55;;;;;;;10.71;76.74;101300.28;6383390;22;20025;-94
2022/03/28 00:07:04;;;;;;;16.92;12.73;;;;;;;10.88;77.12;101332.38;6388625;22;20051;-92
2022/03/28 00:09:51;;;;;;;16.05;12.65;;;;;;;10.67;77.17;101298.66;6389766;22;20018;-90
2022/03/28 00:12:27;;;;;;;19.00;13.13;;;;;;;10.81;77.48;101321.13;6389479;22;20024;-94
2022/03/28 00:15:02;;;;;;;16.33;12.43;;;;;;;10.80;77.40;101329.13;6392523;22;20033;-92
2022/03/28 00:17:37;;;;;;;18.90;13.18;;;;;;;10.61;77.65;101298.84;6393311;22;20015;-95
2022/03/28 00:20:24;;;;;;;19.05;12.70;;;;;;;10.73;78.12;101325.81;6392720;22;20046;-92
2022/03/28 00:23:09;;;;;;;16.85;13.40;;;;;;;10.52;78.48;101300.91;6394642;22;20075;-91
2022/03/28 00:25:49;;;;;;;18.60;13.23;;;;;;;10.42;78.55;101291.50;6392070;22;20009;-92
2022/03/28 00:28:28;;;;;;;15.32;12.52;;;;;;;10.79;78.96;101357.41;6394904;22;20022;-93
2022/03/28 00:31:03;;;;;;;19.02;13.13;;;;;;;10.48;79.14;101315.16;6394083;22;20002;-94
2022/03/28 00:33:42;;;;;;;18.88;12.73;;;;;;;10.34;79.84;101290.88;6393170;22;20018;-94
2022/03/28 00:36:33;;;;;;;15.05;12.65;;;;;;;10.70;79.61;101357.72;6394298;22;20112;-92
2022/03/28 00:39:19;;;;;;;17.77;12.63;;;;;;;10.28;79.68;101280.50;6395119;22;20029;-93
2022/03/28 00:41:52;;;;;;;14.40;12.02;;;;;;;10.48;80.05;101324.88;6394731;22;20021;-91
2022/03/28 00:44:34;;;;;;;16.05;12.95;;;;;;;10.24;80.27;101296.50;6393405;22;19998;-93
2022/03/28 00:47:28;;;;;;;18.65;12.57;;;;;;;10.16;80.21;101291.44;6387993;22;20025;-90
2022/03/28 00:50:18;;;;;;;16.77;12.45;;;;;;;10.07;80.00;101273.22;6393149;22;20052;-89
2022/03/28 00:56:08;;;;;;;17.50;12.75;;;;;;;10.23;80.96;101308.03;6391197;22;20007;-94
2022/03/28 00:58:59;;;;;;;17.63;13.30;;;;;;;9.97;80.88;101269.94;6393688;22;20024;-92
2022/03/28 01:01:30;;;;;;;17.80;13.30;;;;;;;9.90;81.45;101272.84;6372406;22;20336;-91
2022/03/28 01:04:07;;;;;;;17.40;12.75;;;;;;;10.28;81.61;101337.84;6393488;22;20022;-94
2022/03/28 01:06:38;;;;;;;17.73;12.88;;;;;;;9.97;81.85;101291.13;6390933;22;20046;-89
2022/03/28 01:09:42;;;;;;;19.33;12.45;;;;;;;9.82;82.36;101271.28;6394074;22;20009;-93
2022/03/28 01:12:29;;;;;;;16.95;13.18;;;;;;;9.73;81.82;101260.13;6393608;22;20014;-94
2022/03/28 01:15:24;;;;;;;18.45;13.00;;;;;;;10.13;82.44;101333.88;6393767;22;20018;-89
2022/03/28 01:20:43;;;;;;;16.30;12.77;;;;;;;9.70;82.60;101260.22;6298652;22;20067;-92
2022/03/28 01:23:39;;;;;;;18.52;13.20;;;;;;;9.92;82.23;101298.31;6298564;22;20012;-93
2022/03/28 01:26:17;;;;;;;17.80;13.30;;;;;;;9.58;82.73;101253.50;6298304;22;20002;-90
2022/03/28 01:29:33;;;;;;;16.88;12.90;;;;;;;9.99;82.92;101318.41;6364186;22;20003;-89
2022/03/28 01:32:22;;;;;;;19.42;13.40;;;;;;;9.55;82.71;101255.38;6355184;22;20021;-89
2022/03/28 01:38:11;;;;;;;16.75;12.75;;;;;;;9.56;83.47;101257.97;6359908;22;20022;-89
2022/03/28 01:40:58;;;;;;;17.23;13.55;;;;;;;9.37;83.88;101232.97;6323524;22;20003;-88
2022/03/28 01:46:28;;;;;;;16.83;12.65;;;;;;;9.75;83.61;101301.50;6342159;22;20014;-89
2022/03/28 01:48:57;;;;;;;18.52;13.13;;;;;;;9.64;83.98;101286.81;6362922;22;20041;-90
2022/03/28 01:51:38;;;;;;;18.40;12.90;;;;;;;9.60;83.81;101274.63;6365031;22;20035;-90
2022/03/28 01:54:33;;;;;;;18.98;12.90;;;;;;;9.72;84.08;101306.00;6361526;22;20007;-93
2022/03/28 01:57:13;;;;;;;18.67;12.85;;;;;;;9.32;84.32;101237.50;6361591;22;20456;-96
2022/03/28 01:59:43;;;;;;;17.15;12.88;;;;;;;9.16;84.38;101223.84;6359455;22;20015;-94
2022/03/28 02:02:25;;;;;;;18.40;13.68;;;;;;;9.21;84.90;101234.31;6356417;22;20019;-92
2022/03/28 02:05:01;;;;;;;17.35;13.57;;;;;;;9.57;84.59;101303.78;6333116;22;20029;-95
2022/03/28 02:07:34;;;;;;;19.45;13.60;;;;;;;9.10;85.20;101231.97;6362377;22;20015;-90
2022/03/28 02:10:11;;;;;;;18.63;13.57;;;;;;;9.48;85.13;101302.25;6364783;22;20026;-88
2022/03/28 02:12:45;;;;;;;18.15;12.80;;;;;;;9.20;85.15;101254.59;6338489;22;20019;-89
2022/03/28 02:15:14;;;;;;;16.23;12.63;;;;;;;8.94;85.32;101235.94;6361642;22;20036;-90
2022/03/28 02:17:59;;;;;;;20.80;13.27;;;;;;;8.89;85.88;101214.06;6358569;22;20076;-91
2022/03/28 02:20:32;;;;;;;17.73;12.95;;;;;;;8.86;85.84;101203.56;6361737;22;20037;-95
2022/03/28 02:23:13;;;;;;;19.58;13.88;;;;;;;8.94;85.74;101223.59;6358474;22;20037;-94
2022/03/28 02:25:49;;;;;;;17.70;13.05;;;;;;;8.88;86.12;101214.97;6357092;22;20031;-95
2022/03/28 02:28:24;;;;;;;18.40;13.02;;;;;;;8.82;85.95;101209.84;6336754;22;20048;-90
2022/03/28 02:30:58;;;;;;;18.35;13.60;;;;;;;9.26;86.36;101290.56;6359567;22;20022;-92
2022/03/28 02:33:26;;;;;;;18.40;13.63;;;;;;;9.04;86.46;101258.56;6358501;22;20548;-94
2022/03/28 02:36:01;;;;;;;16.52;13.25;;;;;;;9.22;86.85;101284.47;6356205;22;20023;-91
2022/03/28 02:38:31;;;;;;;18.23;12.90;;;;;;;8.90;86.63;101234.28;6355096;22;20015;-92
2022/03/28 02:41:08;;;;;;;16.83;13.45;;;;;;;8.88;86.93;101225.53;6356125;22;20026;-91
2022/03/28 02:43:59;;;;;;;23.23;13.30;;;;;;;8.81;86.75;101208.13;6356673;22;20052;-92
2022/03/28 02:46:41;;;;;;;17.55;12.63;;;;;;;8.87;86.95;101213.22;6354372;22;20074;-91
2022/03/28 02:49:25;;;;;;;17.63;13.13;;;;;;;9.21;87.35;101279.25;6356118;22;20018;-92
2022/03/28 02:52:12;;;;;;;18.83;13.23;;;;;;;8.78;87.31;101207.31;6357448;22;20022;-90
2022/03/28 02:54:49;;;;;;;17.63;12.75;;;;;;;9.17;87.80;101267.88;6358485;22;20019;-93
2022/03/28 02:57:27;;;;;;;18.70;13.20;;;;;;;8.77;87.69;101202.94;6357025;22;20026;-92
2022/03/28 03:00:27;;;;;;;17.48;13.20;;;;;;;8.78;88.06;101196.75;6358689;22;20019;-94
2022/03/28 03:03:05;;;;;;;18.85;13.38;;;;;;;8.76;87.79;101189.75;6357776;22;20056;-94
2022/03/28 03:05:49;;;;;;;16.85;12.88;;;;;;;8.85;87.83;101196.56;6360998;22;20041;-90
2022/03/28 03:08:25;;;;;;;16.38;13.15;;;;;;;8.75;87.75;101167.78;6359639;22;20007;-92
2022/03/28 03:11:02;;;;;;;20.50;13.38;;;;;;;9.15;87.28;101235.34;6362480;22;20006;-89
2022/03/28 03:13:41;;;;;;;18.23;13.25;;;;;;;8.78;86.98;101177.38;6363684;22;20014;-91
2022/03/28 03:16:14;;;;;;;18.83;13.23;;;;;;;9.25;87.26;101247.41;6321667;22;20192;-91
2022/03/28 03:19:15;;;;;;;19.35;13.43;;;;;;;9.12;87.02;101235.44;6339181;22;20007;-91
2022/03/28 03:21:57;;;;;;;19.60;14.25;;;;;;;8.68;86.74;101176.75;6355053;22;20018;-93
2022/03/28 03:24:55;;;;;;;18.42;13.20;;;;;;;8.73;86.98;101193.34;6325882;22;20539;-93
2022/03/28 03:27:36;;;;;;;19.50;13.93;;;;;;;8.97;87.67;101246.44;6359547;22;20015;-93
2022/03/28 03:30:19;;;;;;;18.50;13.23;;;;;;;8.90;87.64;101243.06;6333914;22;20023;-90
2022/03/28 03:33:14;;;;;;;18.55;13.18;;;;;;;8.40;88.17;101173.97;6360074;22;20017;-89
2022/03/28 03:35:58;;;;;;;19.42;14.27;;;;;;;8.81;88.54;101243.34;6315253;22;20023;31
2022/03/28 03:38:37;;;;;;;19.02;14.23;;;;;;;8.67;88.23;101222.53;6270005;22;20031;-88
2022/03/28 03:41:36;;;;;;;17.65;13.45;;;;;;;8.43;88.62;101194.16;6363217;22;20074;-91
2022/03/28 03:44:21;;;;;;;;;;;;;;;;;;;;;
2022/03/28 03:47:30;;;;;;;19.52;13.82;;;;;;;8.16;88.41;101166.66;6364648;22;20025;-91
2022/03/28 03:50:24;;;;;;;20.13;14.90;;;;;;;8.52;88.83;101236.13;6342334;22;20066;-91
2022/03/28 03:53:22;;;;;;;18.77;13.68;;;;;;;8.05;89.32;101169.53;6338891;22;20014;-91
2022/03/28 03:56:21;;;;;;;21.52;14.07;;;;;;;8.34;90.14;101224.25;6364674;22;20021;-90
2022/03/28 03:59:09;;;;;;;20.17;14.32;;;;;;;7.98;90.72;101162.69;6303631;22;20015;-91
2022/03/28 04:02:23;;;;;;;20.40;14.93;;;;;;;8.24;90.97;101216.56;6331192;22;20011;-89
2022/03/28 04:05:13;;;;;;;20.40;14.15;;;;;;;8.23;91.17;101217.47;6334650;22;20019;-90
2022/03/28 04:08:10;;;;;;;22.65;15.32;;;;;;;7.96;91.58;101176.81;6336319;22;20019;-89
2022/03/28 04:13:35;;;;;;;19.10;13.57;;;;;;;7.78;91.63;101141.19;6339385;22;20014;-92
2022/03/28 04:16:16;;;;;;;21.63;15.05;;;;;;;7.88;91.60;101155.00;6330777;22;20026;-93
2022/03/28 04:18:54;;;;;;;21.05;14.63;;;;;;;7.94;91.57;101171.56;6328818;22;20006;-92
2022/03/28 04:21:26;;;;;;;23.15;15.88;;;;;;;7.73;91.56;101138.66;6330228;22;20023;-96
2022/03/28 04:24:02;;;;;;;19.58;14.40;;;;;;;7.71;91.84;101131.72;6329057;22;20058;-95
2022/03/28 04:26:45;;;;;;;20.55;15.23;;;;;;;8.12;91.92;101204.56;6326477;22;20050;-95
2022/03/28 04:29:24;;;;;;;22.27;15.30;;;;;;;7.60;91.47;101125.81;6328480;22;20025;-95
2022/03/28 04:32:22;;;;;;;19.77;14.63;;;;;;;7.56;91.93;101121.50;6326421;22;20023;-94
2022/03/28 04:34:58;;;;;;;21.77;14.55;;;;;;;7.95;92.06;101197.03;6327405;22;20019;-94
2022/03/28 04:37:39;;;;;;;24.33;15.80;;;;;;;7.68;92.92;101148.47;6325975;22;20045;-96
2022/03/28 04:40:16;;;;;;;20.58;14.85;;;;;;;7.48;92.69;101115.53;6327556;22;20037;-94
2022/03/28 04:42:48;;;;;;;23.20;14.82;;;;;;;7.44;92.80;101124.41;6330265;22;20011;-90
2022/03/28 04:45:20;;;;;;;22.63;15.35;;;;;;;7.84;93.28;101191.16;6326966;22;20043;-93
2022/03/28 04:47:51;;;;;;;22.58;16.25;;;;;;;7.37;93.29;101127.22;6323033;22;20046;-92
2022/03/28 04:50:28;;;;;;;23.58;16.40;;;;;;;7.33;93.89;101119.41;6322677;22;20070;-92
2022/03/28 04:53:01;;;;;;;22.90;15.65;;;;;;;7.30;93.82;101119.47;6323573;22;20019;-96
2022/03/28 04:55:33;;;;;;;24.77;16.58;;;;;;;7.27;93.96;101125.66;6324390;22;20023;-91
2022/03/28 04:58:08;;;;;;;26.52;16.70;;;;;;;7.54;94.58;101165.50;6328183;22;20080;-88
2022/03/28 05:00:40;;;;;;;21.92;15.80;;;;;;;7.53;94.12;101176.94;6332749;22;20034;-89
2022/03/28 05:03:17;;;;;;;23.30;16.15;;;;;;;7.55;94.57;101188.31;6328603;22;20023;-92
2022/03/28 05:05:59;;;;;;;24.50;16.42;;;;;;;7.52;94.54;101191.00;6321818;22;20035;-93
2022/03/28 05:08:41;;;;;;;22.45;16.20;;;;;;;7.32;95.07;101155.41;6322468;22;20024;-94
2022/03/28 05:11:12;;;;;;;25.25;16.77;;;;;;;7.36;95.32;101166.75;6325757;22;20074;-94
2022/03/28 05:13:53;;;;;;;24.23;16.25;;;;;;;7.19;95.27;101129.38;6336185;22;20022;-94
2022/03/28 05:16:31;;;;;;;22.05;15.43;;;;;;;7.23;95.56;101139.81;6356027;22;20027;-95
2022/03/28 05:19:02;;;;;;;24.60;17.25;;;;;;;7.28;95.28;101144.97;6349256;22;20017;-92
2022/03/28 05:21:36;;;;;;;23.33;15.57;;;;;;;7.22;95.19;101127.53;6327280;22;20047;-92
2022/03/28 05:24:07;;;;;;;25.27;16.35;;;;;;;7.21;95.56;101115.28;6350943;22;20052;-94
2022/03/28 05:26:39;;;;;;;24.45;16.33;;;;;;;7.18;95.23;101119.72;6349576;22;20015;-95
2022/03/28 05:29:07;;;;;;;25.73;15.85;;;;;;;7.29;94.83;101129.13;6348855;22;20017;-96
2022/03/28 05:31:35;;;;;;;28.65;16.77;;;;;;;7.71;94.76;101206.38;6350846;22;20015;-96
2022/03/28 05:34:04;;;;;;;21.90;15.77;;;;;;;7.26;94.84;101129.19;6349234;22;20014;-95
2022/03/28 05:36:40;;;;;;;25.08;15.70;;;;;;;7.61;95.39;101182.88;6323214;22;20019;-94
2022/03/28 05:39:13;;;;;;;22.42;15.50;;;;;;;7.27;94.89;101128.28;6357534;22;20022;-93
2022/03/28 05:41:44;;;;;;;22.77;16.00;;;;;;;7.31;95.25;101127.31;6359631;22;20018;-91
2022/03/28 05:44:19;;;;;;;25.40;16.75;;;;;;;7.78;95.57;101201.84;6360944;22;20021;-90
2022/03/28 05:46:52;;;;;;;21.05;15.98;;;;;;;7.31;94.98;101116.78;6333791;22;20044;-91
2022/03/28 05:49:25;;;;;;;23.27;15.82;;;;;;;7.81;94.90;101196.50;6359765;22;20060;-96
2022/03/28 05:51:55;;;;;;;22.73;16.15;;;;;;;7.48;94.56;101131.34;6351906;22;20026;-93
2022/03/28 05:54:42;;;;;;;31.95;17.52;;;;;;;7.75;94.76;101186.94;6325025;22;20011;-95
2022/03/28 05:57:12;;;;;;;24.80;16.65;;;;;;;7.60;94.44;101144.25;6321898;22;20022;-91
2022/03/28 05:59:45;;;;;;;22.90;16.60;;;;;;;7.55;93.61;101135.59;6321795;22;20022;-93
2022/03/28 06:02:19;;;;;;;23.10;15.90;;;;;;;7.57;93.78;101129.38;6348653;22;20049;-94
2022/03/28 06:04:53;;;;;;;26.58;16.83;;;;;;;7.59;93.88;101132.84;6348684;22;20026;-95
2022/03/28 06:07:22;;;;;;;25.65;16.85;;;;;;;7.69;93.46;101120.34;6321113;22;20027;-95
2022/03/28 06:09:52;;;;;;;24.30;17.15;;;;;;;8.07;92.68;101180.06;6299479;22;20045;-94
2022/03/28 06:12:21;;;;;;;27.65;16.05;;;;;;;8.24;92.35;101201.63;6349582;22;20030;-96
2022/03/28 06:14:54;;;;;;;24.13;17.27;;;;;;;7.84;92.72;101119.97;6324378;22;20050;-94
2022/03/28 06:17:28;;;;;;;26.38;16.63;;;;;;;7.96;92.01;101134.63;6349742;22;20425;-92
2022/03/28 06:19:56;;;;;;;26.00;17.15;;;;;;;8.41;91.80;101203.88;6354872;22;20040;-95
2022/03/28 06:22:24;;;;;;;24.33;16.58;;;;;;;8.05;92.21;101131.72;6355559;22;20014;-91
2022/03/28 06:25:01;;;;;;;25.35;16.83;;;;;;;8.21;91.46;101138.34;6358419;22;20017;-91
2022/03/28 06:27:51;;;;;;;;;;;;;;;8.67;90.79;101204.06;6337804;22;20015;-94
2022/03/28 06:30:19;;;;;;;26.90;16.53;;;;;;;8.51;90.79;101170.19;6353953;22;19993;-95
2022/03/28 06:32:47;;;;;;;27.73;17.45;;;;;;;8.77;90.21;101191.50;6353994;22;20506;-94
2022/03/28 06:35:45;;;;;;;;;;;;;;;;;;;;;
2022/03/28 06:38:13;;;;;;;26.13;17.20;;;;;;;8.57;89.62;101127.78;6341075;22;20026;-91
2022/03/28 06:40:47;;;;;;;27.83;17.70;;;;;;;8.90;89.61;101152.41;6360295;22;20029;-92
2022/03/28 06:43:20;;;;;;;26.05;16.90;;;;;;;8.81;90.46;101106.00;6352222;22;20080;-92
2022/03/28 06:45:51;;;;;;;26.13;17.13;;;;;;;9.58;89.79;101186.53;6352807;22;20060;-94
2022/03/28 06:48:24;;;;;;;27.33;16.23;;;;;;;9.57;86.74;101153.06;6352518;22;20100;-96
2022/03/28 06:51:06;;;;;;;27.60;16.98;;;;;;;9.34;86.35;101101.75;6351212;22;20373;-94
2022/03/28 06:53:48;;;;;;;26.35;17.13;;;;;;;9.87;84.93;101178.56;6351686;22;20014;-91
2022/03/28 06:56:17;;;;;;;29.48;16.50;;;;;;;9.69;84.45;101140.34;6355405;22;20027;-93
2022/03/28 06:58:46;;;;;;;23.60;16.10;;;;;;;9.99;84.15;101178.16;6327022;22;20019;-94
2022/03/28 07:01:42;;;;;;;24.77;16.00;;;;;;;9.87;84.16;101140.66;6352872;22;20018;-91
2022/03/28 07:04:13;;;;;;;24.63;15.85;;;;;;;10.07;83.86;101160.25;6330764;22;20449;-93
2022/03/28 07:06:46;;;;;;;22.27;15.85;;;;;;;10.21;83.14;101159.00;6360441;22;20019;-91
2022/03/28 07:09:18;;;;;;;21.20;15.27;;;;;;;10.03;83.14;101111.00;6360079;22;20049;-92
2022/03/28 07:11:54;;;;;;;23.40;16.70;;;;;;;10.10;82.51;101098.41;6335133;22;20019;-93
2022/03/28 07:14:29;;;;;;;23.13;16.20;;;;;;;10.58;82.35;101148.00;6360849;22;20132;-90
2022/03/28 07:17:12;;;;;;;24.15;16.30;;;;;;;10.46;80.42;101096.31;6273923;22;20017;-92
2022/03/28 07:19:46;;;;;;;21.27;15.88;;;;;;;10.66;80.37;101112.38;6325776;22;20019;-91
2022/03/28 07:22:14;;;;;;;24.00;16.73;;;;;;;10.77;78.52;101094.31;6325583;22;20033;-92
2022/03/28 07:25:04;;;;;;;24.90;16.45;;;;;;;11.22;78.29;101134.13;6325102;22;20049;-93
2022/03/28 07:27:42;;;;;;;22.40;16.23;;;;;;;11.37;76.76;101137.13;6328186;22;20015;-93
2022/03/28 07:33:19;;;;;;;22.23;16.48;;;;;;;11.69;75.25;101130.56;6337971;22;20050;-91
2022/03/28 07:45:53;;;;;;;;;;;;;;;;;;;;;
2022/03/28 07:48:55;;;;;;;23.83;15.57;;;;;;;12.75;70.29;101122.56;6264442;22;20022;-90
2022/03/28 08:04:29;;;;;;;18.08;14.10;;;;;;;13.45;66.45;101090.97;6358796;22;20007;-91
2022/03/28 08:22:14;;;;;;;26.77;15.95;;;;;;;14.03;63.27;101085.44;6329376;22;20628;-92
2022/03/28 08:25:05;;;;;;;22.50;15.32;;;;;;;13.89;62.69;101043.53;6267608;22;20106;-94
2022/03/28 08:31:25;;;;;;;;;;;;;;;;;;;;;
2022/03/28 08:46:35;;;;;;;22.05;16.55;;;;;;;15.26;58.09;101081.59;6335646;22;20055;-95
2022/03/28 08:50:05;;;;;;;24.05;17.30;;;;;;;15.04;57.51;101036.56;6360800;22;20033;-93
2022/03/28 08:53:53;;;;;;;;;;;;;;;;;;;;;
2022/03/28 09:00:26;;;;;;;22.55;16.20;;;;;;;15.45;56.31;101030.69;6312994;22;20030;-91
2022/03/28 09:10:03;;;;;;;22.88;15.95;;;;;;;16.40;54.18;101000.09;6273154;22;20022;-92
2022/03/28 09:16:49;;;;;;;20.45;15.40;;;;;;;17.93;48.12;101001.84;6355625;22;20027;-94
2022/03/28 09:20:09;;;;;;;21.83;15.32;;;;;;;18.66;46.62;101063.81;6360977;22;20015;-93
2022/03/28 09:33:00;;;;;;;18.67;12.88;;;;;;;19.69;41.88;100982.03;6272086;22;20090;-91
2022/03/28 09:36:03;;;;;;;15.13;11.45;;;;;;;19.94;42.99;100992.63;6382101;22;20094;-94
2022/03/28 09:38:57;;;;;;;20.35;14.40;;;;;;;20.29;42.19;101027.56;6381990;22;20022;-94
2022/03/28 09:41:35;;;;;;;15.43;12.45;;;;;;;20.40;41.74;101005.25;6383151;22;20010;-94
2022/03/28 09:44:32;;;;;;;18.92;13.50;;;;;;;20.57;41.41;100983.25;6357011;22;20505;-94
2022/03/28 09:47:17;;;;;;;16.95;13.85;;;;;;;20.72;40.59;100967.72;6383193;22;20025;-93
2022/03/28 09:56:22;;;;;;;;;;;;;;;;;;;;;
2022/03/28 09:59:07;;;;;;;19.35;13.80;;;;;;;22.29;37.91;101009.38;6272293;22;20022;-94
2022/03/28 10:02:23;;;;;;;19.30;14.48;;;;;;;21.80;38.93;101012.66;6360172;22;20070;-95
2022/03/28 10:32:35;;;;;;;18.15;14.80;;;;;;;25.23;31.66;100944.97;6289024;22;20147;-96
2022/03/28 11:23:45;;;;;;;14.70;9.23;;;;;;;25.64;26.70;100870.31;6341469;22;20512;-94
2022/03/28 11:27:09;;;;;;;13.45;8.75;;;;;;;26.16;25.70;100810.59;6297156;22;20007;-91
2022/03/28 11:30:05;;;;;;;;;;;;;;;27.18;21.96;100859.34;6291237;22;20042;-92
2022/03/28 11:33:12;;;;;;;10.25;6.72;;;;;;;27.15;20.78;100806.16;6295276;22;19915;-93
2022/03/28 11:36:54;;;;;;;12.25;7.68;;;;;;;27.12;21.83;100798.34;6269815;22;20008;-92
2022/03/28 11:41:04;;;;;;;;;;;;;;;;;;;;;
2022/03/28 11:47:17;;;;;;;9.35;7.20;;;;;;;28.07;21.30;100776.78;6329046;22;20078;-94
2022/03/28 11:50:12;;;;;;;9.80;7.85;;;;;;;28.43;21.23;100827.06;6343938;22;20027;-93
2022/03/28 11:53:13;;;;;;;13.68;8.80;;;;;;;27.85;21.88;100778.41;6334592;22;20068;-94
2022/03/28 11:56:33;;;;;;;11.32;6.50;;;;;;;28.54;20.08;100823.94;6335259;22;20049;-92
2022/03/28 12:08:39;;;;;;;10.65;7.20;;;;;;;28.26;19.89;100741.84;6246712;22;20029;-93
2022/03/28 12:30:35;;;;;;;9.32;6.32;;;;;;;28.72;20.52;100754.69;6230588;23;20044;-92
2022/03/28 12:33:19;;;;;;;7.70;5.68;;;;;;;29.19;20.09;100740.88;6256760;22;20050;-92
2022/03/28 12:36:24;;;;;;;10.30;7.35;;;;;;;29.20;20.28;100731.66;6234078;23;20020;-96
2022/03/28 12:39:08;;;;;;;8.10;5.85;;;;;;;29.54;19.04;100663.81;6219565;23;20087;-93
2022/03/28 12:41:55;;;;;;;9.48;7.72;;;;;;;30.27;19.29;100670.22;6214313;23;20024;-95
2022/03/28 12:51:07;;;;;;;8.98;7.00;;;;;;;30.88;19.19;100712.50;6237807;22;20017;-96
2022/03/28 13:05:28;;;;;;;8.75;7.32;;;;;;;31.26;19.04;100684.88;6208614;23;20009;-95
2022/03/28 13:08:16;;;;;;;12.50;8.27;;;;;;;30.49;19.36;100666.47;6196920;23;20049;-95
2022/03/28 13:10:54;;;;;;;13.90;8.35;;;;;;;29.23;20.47;100671.28;6198590;23;20021;-94
2022/03/28 13:13:35;;;;;;;11.27;7.70;;;;;;;28.94;20.49;100602.06;6208319;23;20029;-93
2022/03/28 13:19:10;;;;;;;9.75;7.93;;;;;;;29.18;20.61;100627.38;6342624;22;20007;-93
2022/03/28 13:36:58;;;;;;;8.20;7.07;;;;;;;31.63;17.31;100626.16;6299732;22;20026;-93
2022/03/28 13:39:50;;;;;;;8.88;7.40;;;;;;;31.51;17.53;100614.91;6339262;22;20096;-91
2022/03/28 13:42:27;;;;;;;10.05;7.50;;;;;;;31.39;17.87;100616.53;6337731;22;20018;-92
2022/03/28 13:45:18;;;;;;;8.95;7.85;;;;;;;31.30;17.27;100560.28;6321948;22;20438;31
2022/03/28 13:48:04;;;;;;;10.65;7.57;;;;;;;31.34;17.63;100608.06;6235786;22;20081;-93
2022/03/28 13:50:49;;;;;;;10.90;7.80;;;;;;;30.69;18.25;100609.28;6300930;22;20022;-92
2022/03/28 13:53:47;;;;;;;10.15;8.38;;;;;;;30.03;18.45;100536.75;6355842;22;20087;-94
2022/03/28 13:56:33;;;;;;;13.27;7.80;;;;;;;30.41;18.14;100540.88;6300720;22;20019;-93
2022/03/28 13:59:11;;;;;;;13.05;8.15;;;;;;;30.84;17.42;100582.72;6329467;22;20023;-92
2022/03/28 14:01:41;;;;;;;11.95;7.43;;;;;;;30.49;17.85;100567.25;6358558;22;20019;-94
2022/03/28 14:04:24;;;;;;;9.30;7.70;;;;;;;30.53;17.47;100536.59;6359787;22;20019;-93
2022/03/28 14:07:11;;;;;;;11.25;7.28;;;;;;;30.54;17.60;100548.34;6357845;22;20194;-92
2022/03/28 14:09:55;;;;;;;10.10;7.60;;;;;;;29.86;18.15;100544.31;6334595;22;20010;-91
2022/03/28 14:12:40;;;;;;;12.03;7.87;;;;;;;29.81;18.04;100519.47;6352119;22;20022;-94
2022/03/28 14:15:35;;;;;;;8.85;7.18;;;;;;;30.90;17.27;100573.69;6362822;22;20052;-92
2022/03/28 14:18:22;;;;;;;14.07;7.68;;;;;;;29.37;18.46;100495.88;6362861;22;20027;-91
2022/03/28 14:23:59;;;;;;;11.02;7.47;;;;;;;27.01;21.26;100555.94;6330048;22;20030;-93
2022/03/28 14:26:52;;;;;;;9.82;7.43;;;;;;;25.66;22.82;100563.66;6324243;22;20026;-95
2022/03/28 14:29:36;;;;;;;9.32;7.40;;;;;;;25.03;23.26;100545.91;6324962;22;20439;-94
2022/03/28 14:32:28;;;;;;;12.52;7.78;;;;;;;24.37;24.15;100503.19;6320826;22;20024;-94
2022/03/28 14:35:10;;;;;;;10.27;7.45;;;;;;;24.41;23.71;100509.94;6295434;22;20027;-95
2022/03/28 14:43:59;;;;;;;11.77;7.90;;;;;;;26.72;21.11;100488.56;6204908;22;20019;-90
2022/03/28 15:02:11;;;;;;;8.90;6.85;;;;;;;23.88;24.56;100517.25;6221386;22;20975;-95
2022/03/28 15:08:18;;;;;;;;;;;;;;;;;;;;;
2022/03/28 15:22:31;;;;;;;11.30;7.15;;;;;;;29.10;17.25;100420.22;6221477;22;20018;-96
2022/03/28 15:43:42;;;;;;;13.93;7.38;;;;;;;27.27;17.88;100461.34;6203731;22;20533;-89
2022/03/28 15:46:37;;;;;;;12.60;7.63;;;;;;;25.80;18.96;100436.38;6292077;22;20003;-91
2022/03/28 15:49:28;;;;;;;11.05;7.15;;;;;;;24.61;20.37;100409.56;6329118;22;20023;-90
2022/03/28 15:52:31;;;;;;;;;;;;;;;;;;;;;
2022/03/28 16:01:54;;;;;;;10.13;7.50;;;;;;;23.28;21.39;100435.88;6289004;22;20023;31
2022/03/28 16:05:03;;;;;;;;;;;;;;;;;;;;;
2022/03/28 16:08:25;;;;;;;8.38;6.55;;;;;;;22.83;19.24;100433.13;6328971;22;20061;-94
2022/03/28 16:14:13;;;;;;;8.80;7.05;;;;;;;22.29;19.20;100361.91;6257510;22;20014;-93
2022/03/28 16:17:21;;;;;;;9.25;6.90;;;;;;;22.52;18.00;100430.66;6281834;22;20104;31
2022/03/28 16:29:22;;;;;;;10.82;7.30;;;;;;;21.20;20.20;100411.66;6296156;22;20078;-94
2022/03/28 16:36:04;;;;;;;10.88;7.00;;;;;;;20.96;20.29;100338.44;6331443;22;20018;-93
2022/03/28 16:46:23;;;;;;;11.45;7.53;;;;;;;21.19;20.74;100396.47;6327375;22;20023;-95
2022/03/28 16:49:55;;;;;;;10.15;7.43;;;;;;;21.06;21.08;100395.00;6341741;22;20026;-93
2022/03/28 16:52:44;;;;;;;10.50;7.78;;;;;;;20.64;21.40;100350.28;6352501;22;20345;-95
2022/03/28 16:55:41;;;;;;;11.90;7.57;;;;;;;20.39;21.94;100325.72;6294083;22;20058;-94
2022/03/28 17:02:07;;;;;;;10.20;7.88;;;;;;;20.16;22.07;100320.50;6359876;22;20010;-93
2022/03/28 17:05:18;;;;;;;14.70;9.35;;;;;;;20.15;22.61;100342.13;6361220;22;20019;-94
2022/03/28 17:08:39;;;;;;;13.00;8.90;;;;;;;20.13;22.95;100368.31;6360714;22;20021;-93
2022/03/28 17:11:43;;;;;;;9.82;7.22;;;;;;;19.77;23.23;100323.97;6356082;22;20041;-95
2022/03/28 17:17:26;;;;;;;11.77;8.23;;;;;;;19.56;23.95;100342.78;6334417;22;20067;-91
2022/03/28 17:20:20;;;;;;;11.27;7.68;;;;;;;19.45;23.97;100334.75;6321781;22;20019;-92
2022/03/28 17:23:14;;;;;;;11.07;7.20;;;;;;;19.38;24.74;100346.97;6302290;22;20022;-92
2022/03/28 17:25:49;;;;;;;10.05;7.10;;;;;;;18.95;24.58;100301.41;6328000;22;20064;-92
2022/03/28 17:28:33;;;;;;;12.65;7.28;;;;;;;19.12;24.74;100339.28;6326643;22;20035;-91
2022/03/28 17:31:16;;;;;;;10.80;7.38;;;;;;;18.99;25.37;100351.19;6328771;22;20051;-92
2022/03/28 17:33:58;;;;;;;10.82;7.13;;;;;;;18.82;25.56;100334.63;6320237;22;20007;-92
2022/03/28 17:36:30;;;;;;;11.10;7.22;;;;;;;18.64;25.69;100328.09;6330458;22;20019;-93
2022/03/28 17:38:58;;;;;;;9.50;6.68;;;;;;;18.51;26.06;100319.31;6326487;22;20065;-94
2022/03/28 17:41:46;;;;;;;10.68;7.82;;;;;;;18.23;26.23;100293.88;6326383;22;20039;-91
2022/03/28 17:47:04;;;;;;;9.30;7.28;;;;;;;18.23;26.65;100331.41;6285879;22;20035;-93
2022/03/28 17:49:45;;;;;;;8.02;6.28;;;;;;;18.00;27.00;100324.31;6293528;22;20023;-94
2022/03/28 17:52:33;;;;;;;9.27;7.30;;;;;;;17.59;27.11;100277.50;6289692;22;20049;-94
2022/03/28 17:55:21;;;;;;;10.77;7.57;;;;;;;17.77;27.27;100312.75;6284613;22;20035;-94
2022/03/28 17:58:09;;;;;;;11.10;7.93;;;;;;;17.97;27.18;100343.31;6254775;22;20024;-95
2022/03/28 18:00:42;;;;;;;11.88;8.40;;;;;;;17.90;27.41;100342.09;6288078;22;20024;-95
2022/03/28 18:03:28;;;;;;;14.45;8.73;;;;;;;17.49;27.47;100279.16;6232425;22;20053;-96
2022/03/28 18:06:11;;;;;;;11.43;8.40;;;;;;;17.57;27.78;100306.22;6229514;23;20025;-96
2022/03/28 18:09:09;;;;;;;11.27;8.07;;;;;;;17.56;28.09;100311.69;6231910;22;20027;-96
2022/03/28 18:12:12;;;;;;;10.45;7.97;;;;;;;17.20;28.28;100268.03;6230000;23;20027;-94
2022/03/28 18:15:11;;;;;;;;;;;;;;;;;;;;;
2022/03/28 18:18:02;;;;;;;11.00;7.90;;;;;;;17.19;28.89;100310.00;6218842;23;20016;-95
2022/03/28 18:21:30;;;;;;;11.57;8.35;;;;;;;16.91;29.05;100278.28;6229858;23;20522;-93
2022/03/28 18:24:41;;;;;;;11.93;8.25;;;;;;;16.73;29.60;100272.47;6229608;22;20019;-91
2022/03/28 18:27:46;;;;;;;13.02;8.27;;;;;;;17.06;30.04;100344.00;6243076;22;20052;-92
2022/03/28 18:30:39;;;;;;;12.95;8.65;;;;;;;16.94;30.41;100341.38;6264337;22;20024;-92
2022/03/28 18:33:31;;;;;;;12.20;7.95;;;;;;;16.36;30.66;100270.78;6265844;23;20019;-92
2022/03/28 18:54:58;;;;;;;14.00;9.43;;;;;;;16.06;33.88;100351.28;6248769;22;20041;-91
2022/03/28 19:19:27;;;;;;;17.63;11.38;;;;;;;15.92;33.35;100346.91;6325488;22;20014;-93